sensor_id;sensor_type;location;lat;lon;timestamp;temperature;humidity
25188;DHT22;13141;50.414;8.050;2023-04-25T00:00:45;10.30;99.90
25188;DHT22;13141;50.414;8.050;2023-04-25T00:03:11;10.30;99.90
25188;DHT22;13141;50.414;8.050;2023-04-25T00:05:36;10.30;99.90
25188;DHT22;13141;50.414;8.050;2023-04-25T00:08:02;10.40;99.90
25188;DHT22;13141;50.414;8.050;2023-04-25T00:10:28;10.30;99.90
25188;DHT22;13141;50.414;8.050;2023-04-25T00:12:55;10.30;99.90
25188;DHT22;13141;50.414;8.050;2023-04-25T00:15:21;10.30;99.90
25188;DHT22;13141;50.414;8.050;2023-04-25T00:17:47;10.40;99.90
25188;DHT22;13141;50.414;8.050;2023-04-25T00:20:12;10.40;99.90
25188;DHT22;13141;50.414;8.050;2023-04-25T00:22:38;10.30;99.90
25188;DHT22;13141;50.414;8.050;2023-04-25T00:25:05;10.30;99.90
25188;DHT22;13141;50.414;8.050;2023-04-25T00:27:30;10.20;99.90
25188;DHT22;13141;50.414;8.050;2023-04-25T00:29:58;10.10;99.90
25188;DHT22;13141;50.414;8.050;2023-04-25T00:32:24;10.10;99.90
25188;DHT22;13141;50.414;8.050;2023-04-25T00:34:49;10.20;99.90
25188;DHT22;13141;50.414;8.050;2023-04-25T00:37:15;10.20;99.90
25188;DHT22;13141;50.414;8.050;2023-04-25T00:39:41;10.20;99.90
25188;DHT22;13141;50.414;8.050;2023-04-25T00:42:07;10.20;99.90
25188;DHT22;13141;50.414;8.050;2023-04-25T00:44:33;10.20;99.90
25188;DHT22;13141;50.414;8.050;2023-04-25T00:47:02;10.10;99.90
25188;DHT22;13141;50.414;8.050;2023-04-25T00:49:27;10.10;99.90
25188;DHT22;13141;50.414;8.050;2023-04-25T00:51:54;10.10;99.90
25188;DHT22;13141;50.414;8.050;2023-04-25T00:54:20;10.00;99.90
25188;DHT22;13141;50.414;8.050;2023-04-25T00:56:46;10.10;99.90
25188;DHT22;13141;50.414;8.050;2023-04-25T00:59:12;10.00;99.90
25188;DHT22;13141;50.414;8.050;2023-04-25T01:01:39;10.00;99.90
25188;DHT22;13141;50.414;8.050;2023-04-25T01:04:09;10.00;99.90
25188;DHT22;13141;50.414;8.050;2023-04-25T01:06:35;10.00;99.90
25188;DHT22;13141;50.414;8.050;2023-04-25T01:09:02;10.00;99.90
25188;DHT22;13141;50.414;8.050;2023-04-25T01:11:28;10.00;99.90
25188;DHT22;13141;50.414;8.050;2023-04-25T01:13:53;9.90;99.90
25188;DHT22;13141;50.414;8.050;2023-04-25T01:16:19;9.90;99.90
25188;DHT22;13141;50.414;8.050;2023-04-25T01:18:45;9.90;99.90
25188;DHT22;13141;50.414;8.050;2023-04-25T01:21:13;9.90;99.90
25188;DHT22;13141;50.414;8.050;2023-04-25T01:23:40;9.80;99.90
25188;DHT22;13141;50.414;8.050;2023-04-25T01:26:06;9.80;99.90
25188;DHT22;13141;50.414;8.050;2023-04-25T01:28:34;9.80;99.90
25188;DHT22;13141;50.414;8.050;2023-04-25T01:31:00;9.80;99.90
25188;DHT22;13141;50.414;8.050;2023-04-25T01:33:26;9.80;99.90
25188;DHT22;13141;50.414;8.050;2023-04-25T01:35:52;9.80;99.90
25188;DHT22;13141;50.414;8.050;2023-04-25T01:38:19;9.80;99.90
25188;DHT22;13141;50.414;8.050;2023-04-25T01:40:46;9.80;99.90
25188;DHT22;13141;50.414;8.050;2023-04-25T01:43:12;9.70;99.90
25188;DHT22;13141;50.414;8.050;2023-04-25T01:45:38;9.70;99.90
25188;DHT22;13141;50.414;8.050;2023-04-25T01:48:05;9.80;99.90
25188;DHT22;13141;50.414;8.050;2023-04-25T01:50:31;9.70;99.90
25188;DHT22;13141;50.414;8.050;2023-04-25T01:52:57;9.60;99.90
25188;DHT22;13141;50.414;8.050;2023-04-25T01:55:26;9.60;99.90
25188;DHT22;13141;50.414;8.050;2023-04-25T01:57:52;9.60;99.90
25188;DHT22;13141;50.414;8.050;2023-04-25T02:00:18;9.50;99.90
25188;DHT22;13141;50.414;8.050;2023-04-25T02:02:44;9.40;99.90
25188;DHT22;13141;50.414;8.050;2023-04-25T02:05:09;9.40;99.90
25188;DHT22;13141;50.414;8.050;2023-04-25T02:07:35;9.30;99.90
25188;DHT22;13141;50.414;8.050;2023-04-25T02:10:01;9.30;99.90
25188;DHT22;13141;50.414;8.050;2023-04-25T02:12:31;9.30;99.90
25188;DHT22;13141;50.414;8.050;2023-04-25T02:14:56;9.20;99.90
25188;DHT22;13141;50.414;8.050;2023-04-25T02:17:22;9.20;99.90
25188;DHT22;13141;50.414;8.050;2023-04-25T02:19:48;9.10;99.90
25188;DHT22;13141;50.414;8.050;2023-04-25T02:22:14;8.90;99.90
25188;DHT22;13141;50.414;8.050;2023-04-25T02:24:39;9.00;99.90
25188;DHT22;13141;50.414;8.050;2023-04-25T02:27:05;9.00;99.90
25188;DHT22;13141;50.414;8.050;2023-04-25T02:29:32;9.00;99.90
25188;DHT22;13141;50.414;8.050;2023-04-25T02:31:58;9.00;99.90
25188;DHT22;13141;50.414;8.050;2023-04-25T02:34:24;8.90;99.90
25188;DHT22;13141;50.414;8.050;2023-04-25T02:36:50;8.50;99.90
25188;DHT22;13141;50.414;8.050;2023-04-25T02:39:15;8.40;99.90
25188;DHT22;13141;50.414;8.050;2023-04-25T02:41:41;8.90;99.90
25188;DHT22;13141;50.414;8.050;2023-04-25T02:44:07;8.80;99.90
25188;DHT22;13141;50.414;8.050;2023-04-25T02:46:34;8.80;99.90
25188;DHT22;13141;50.414;8.050;2023-04-25T02:49:00;8.80;99.90
25188;DHT22;13141;50.414;8.050;2023-04-25T02:51:25;8.80;99.90
25188;DHT22;13141;50.414;8.050;2023-04-25T02:53:54;8.70;99.90
25188;DHT22;13141;50.414;8.050;2023-04-25T02:56:19;8.70;99.90
25188;DHT22;13141;50.414;8.050;2023-04-25T02:58:45;8.70;99.90
25188;DHT22;13141;50.414;8.050;2023-04-25T03:01:11;8.60;99.90
25188;DHT22;13141;50.414;8.050;2023-04-25T03:03:38;8.60;99.90
25188;DHT22;13141;50.414;8.050;2023-04-25T03:06:04;8.60;99.90
25188;DHT22;13141;50.414;8.050;2023-04-25T03:08:30;8.50;99.90
25188;DHT22;13141;50.414;8.050;2023-04-25T03:10:55;8.50;99.90
25188;DHT22;13141;50.414;8.050;2023-04-25T03:13:21;8.40;99.90
25188;DHT22;13141;50.414;8.050;2023-04-25T03:15:46;8.40;99.90
25188;DHT22;13141;50.414;8.050;2023-04-25T03:18:12;8.40;99.90
25188;DHT22;13141;50.414;8.050;2023-04-25T03:20:39;8.30;99.90
25188;DHT22;13141;50.414;8.050;2023-04-25T03:23:05;8.60;99.90
25188;DHT22;13141;50.414;8.050;2023-04-25T03:25:31;8.30;99.90
25188;DHT22;13141;50.414;8.050;2023-04-25T03:27:57;8.50;99.90
25188;DHT22;13141;50.414;8.050;2023-04-25T03:30:23;8.20;99.90
25188;DHT22;13141;50.414;8.050;2023-04-25T03:32:49;8.10;99.90
25188;DHT22;13141;50.414;8.050;2023-04-25T03:35:17;8.30;99.90
25188;DHT22;13141;50.414;8.050;2023-04-25T03:37:44;7.90;99.90
25188;DHT22;13141;50.414;8.050;2023-04-25T03:40:10;7.80;99.90
25188;DHT22;13141;50.414;8.050;2023-04-25T03:42:36;7.70;99.90
25188;DHT22;13141;50.414;8.050;2023-04-25T03:45:02;7.70;99.90
25188;DHT22;13141;50.414;8.050;2023-04-25T03:47:28;7.50;99.90
25188;DHT22;13141;50.414;8.050;2023-04-25T03:49:54;7.40;99.90
25188;DHT22;13141;50.414;8.050;2023-04-25T03:52:21;7.40;99.90
25188;DHT22;13141;50.414;8.050;2023-04-25T03:54:49;7.50;99.90
25188;DHT22;13141;50.414;8.050;2023-04-25T03:57:14;7.40;99.90
25188;DHT22;13141;50.414;8.050;2023-04-25T03:59:41;7.40;99.90
25188;DHT22;13141;50.414;8.050;2023-04-25T04:02:12;7.30;99.90
25188;DHT22;13141;50.414;8.050;2023-04-25T04:04:38;7.20;99.90
25188;DHT22;13141;50.414;8.050;2023-04-25T04:07:09;7.20;99.90
25188;DHT22;13141;50.414;8.050;2023-04-25T04:09:36;7.10;99.90
25188;DHT22;13141;50.414;8.050;2023-04-25T04:12:06;7.40;99.90
25188;DHT22;13141;50.414;8.050;2023-04-25T04:14:32;7.20;99.90
25188;DHT22;13141;50.414;8.050;2023-04-25T04:16:58;7.20;99.90
25188;DHT22;13141;50.414;8.050;2023-04-25T04:19:23;7.30;99.90
25188;DHT22;13141;50.414;8.050;2023-04-25T04:21:49;7.40;99.90
25188;DHT22;13141;50.414;8.050;2023-04-25T04:24:20;7.30;99.90
25188;DHT22;13141;50.414;8.050;2023-04-25T04:26:48;7.30;99.90
25188;DHT22;13141;50.414;8.050;2023-04-25T04:29:15;7.40;99.90
25188;DHT22;13141;50.414;8.050;2023-04-25T04:31:41;7.40;99.90
25188;DHT22;13141;50.414;8.050;2023-04-25T04:34:07;7.40;99.90
25188;DHT22;13141;50.414;8.050;2023-04-25T04:36:35;7.70;99.90
25188;DHT22;13141;50.414;8.050;2023-04-25T04:39:01;7.40;99.90
25188;DHT22;13141;50.414;8.050;2023-04-25T04:41:27;7.30;99.90
25188;DHT22;13141;50.414;8.050;2023-04-25T04:43:53;7.20;99.90
25188;DHT22;13141;50.414;8.050;2023-04-25T04:46:20;7.00;99.90
25188;DHT22;13141;50.414;8.050;2023-04-25T04:48:46;7.00;99.90
25188;DHT22;13141;50.414;8.050;2023-04-25T04:51:11;6.90;99.90
25188;DHT22;13141;50.414;8.050;2023-04-25T04:53:41;7.00;99.90
25188;DHT22;13141;50.414;8.050;2023-04-25T04:56:07;7.00;99.90
25188;DHT22;13141;50.414;8.050;2023-04-25T04:58:32;6.40;99.90
25188;DHT22;13141;50.414;8.050;2023-04-25T05:00:58;6.40;99.90
25188;DHT22;13141;50.414;8.050;2023-04-25T05:03:26;7.00;99.90
25188;DHT22;13141;50.414;8.050;2023-04-25T05:05:52;6.90;99.90
25188;DHT22;13141;50.414;8.050;2023-04-25T05:08:18;6.90;99.90
25188;DHT22;13141;50.414;8.050;2023-04-25T05:10:44;6.80;99.90
25188;DHT22;13141;50.414;8.050;2023-04-25T05:13:09;6.90;99.90
25188;DHT22;13141;50.414;8.050;2023-04-25T05:15:35;6.80;99.90
25188;DHT22;13141;50.414;8.050;2023-04-25T05:18:02;6.90;99.90
25188;DHT22;13141;50.414;8.050;2023-04-25T05:20:29;7.10;99.90
25188;DHT22;13141;50.414;8.050;2023-04-25T05:22:55;7.30;99.90
25188;DHT22;13141;50.414;8.050;2023-04-25T05:25:23;7.00;99.90
25188;DHT22;13141;50.414;8.050;2023-04-25T05:27:50;7.60;99.90
25188;DHT22;13141;50.414;8.050;2023-04-25T05:30:16;7.70;99.90
25188;DHT22;13141;50.414;8.050;2023-04-25T05:32:42;7.70;99.90
25188;DHT22;13141;50.414;8.050;2023-04-25T05:35:08;7.90;99.90
25188;DHT22;13141;50.414;8.050;2023-04-25T05:37:35;7.90;99.90
25188;DHT22;13141;50.414;8.050;2023-04-25T05:40:06;8.00;99.90
25188;DHT22;13141;50.414;8.050;2023-04-25T05:42:32;8.10;99.90
25188;DHT22;13141;50.414;8.050;2023-04-25T05:44:58;7.90;99.90
25188;DHT22;13141;50.414;8.050;2023-04-25T05:47:23;8.30;99.90
25188;DHT22;13141;50.414;8.050;2023-04-25T05:49:49;8.30;99.90
25188;DHT22;13141;50.414;8.050;2023-04-25T05:52:15;8.40;99.90
25188;DHT22;13141;50.414;8.050;2023-04-25T05:54:43;8.00;99.90
25188;DHT22;13141;50.414;8.050;2023-04-25T05:57:22;8.70;99.90
25188;DHT22;13141;50.414;8.050;2023-04-25T05:59:55;8.50;99.90
25188;DHT22;13141;50.414;8.050;2023-04-25T06:02:25;8.60;99.90
25188;DHT22;13141;50.414;8.050;2023-04-25T06:05:01;8.60;99.90
25188;DHT22;13141;50.414;8.050;2023-04-25T06:07:27;8.70;99.90
25188;DHT22;13141;50.414;8.050;2023-04-25T06:10:13;8.80;99.90
25188;DHT22;13141;50.414;8.050;2023-04-25T06:13:07;8.80;99.90
25188;DHT22;13141;50.414;8.050;2023-04-25T06:15:36;8.90;99.90
25188;DHT22;13141;50.414;8.050;2023-04-25T06:18:05;8.90;99.90
25188;DHT22;13141;50.414;8.050;2023-04-25T06:20:37;9.30;99.90
25188;DHT22;13141;50.414;8.050;2023-04-25T06:23:04;9.10;99.90
25188;DHT22;13141;50.414;8.050;2023-04-25T06:25:31;9.30;99.90
25188;DHT22;13141;50.414;8.050;2023-04-25T06:29:08;9.30;99.90
25188;DHT22;13141;50.414;8.050;2023-04-25T06:30:53;9.60;99.90
25188;DHT22;13141;50.414;8.050;2023-04-25T06:33:22;9.50;99.90
25188;DHT22;13141;50.414;8.050;2023-04-25T06:35:50;9.50;99.90
25188;DHT22;13141;50.414;8.050;2023-04-25T06:38:21;9.70;99.90
25188;DHT22;13141;50.414;8.050;2023-04-25T06:40:59;9.80;99.90
25188;DHT22;13141;50.414;8.050;2023-04-25T06:43:25;10.00;99.90
25188;DHT22;13141;50.414;8.050;2023-04-25T06:45:56;9.90;99.90
25188;DHT22;13141;50.414;8.050;2023-04-25T06:48:23;10.00;99.90
25188;DHT22;13141;50.414;8.050;2023-04-25T06:50:49;10.00;99.90
25188;DHT22;13141;50.414;8.050;2023-04-25T06:53:14;10.00;99.90
25188;DHT22;13141;50.414;8.050;2023-04-25T06:55:45;9.60;99.90
25188;DHT22;13141;50.414;8.050;2023-04-25T06:58:12;10.00;99.90
25188;DHT22;13141;50.414;8.050;2023-04-25T07:00:38;10.00;99.90
25188;DHT22;13141;50.414;8.050;2023-04-25T07:03:04;10.00;99.90
25188;DHT22;13141;50.414;8.050;2023-04-25T07:05:32;10.00;99.90
25188;DHT22;13141;50.414;8.050;2023-04-25T07:08:14;10.20;99.90
25188;DHT22;13141;50.414;8.050;2023-04-25T07:10:43;10.00;99.90
25188;DHT22;13141;50.414;8.050;2023-04-25T07:13:09;10.00;99.90
25188;DHT22;13141;50.414;8.050;2023-04-25T07:15:39;9.90;99.90
25188;DHT22;13141;50.414;8.050;2023-04-25T07:18:05;9.90;99.90
25188;DHT22;13141;50.414;8.050;2023-04-25T07:20:34;9.90;99.90
25188;DHT22;13141;50.414;8.050;2023-04-25T07:23:03;9.80;99.90
25188;DHT22;13141;50.414;8.050;2023-04-25T07:25:28;9.90;99.90
25188;DHT22;13141;50.414;8.050;2023-04-25T07:28:00;9.80;99.90
25188;DHT22;13141;50.414;8.050;2023-04-25T07:30:27;9.80;99.90
25188;DHT22;13141;50.414;8.050;2023-04-25T07:33:08;9.90;99.90
25188;DHT22;13141;50.414;8.050;2023-04-25T07:35:34;9.90;99.90
25188;DHT22;13141;50.414;8.050;2023-04-25T07:38:03;10.00;99.90
25188;DHT22;13141;50.414;8.050;2023-04-25T07:40:40;10.10;99.90
25188;DHT22;13141;50.414;8.050;2023-04-25T07:43:24;10.30;99.90
25188;DHT22;13141;50.414;8.050;2023-04-25T07:46:08;10.40;99.90
25188;DHT22;13141;50.414;8.050;2023-04-25T07:48:36;10.30;99.90
25188;DHT22;13141;50.414;8.050;2023-04-25T07:51:16;10.50;99.90
25188;DHT22;13141;50.414;8.050;2023-04-25T07:53:44;10.90;99.90
25188;DHT22;13141;50.414;8.050;2023-04-25T07:56:14;11.00;99.90
25188;DHT22;13141;50.414;8.050;2023-04-25T07:58:50;11.00;99.90
25188;DHT22;13141;50.414;8.050;2023-04-25T08:01:25;11.10;99.90
25188;DHT22;13141;50.414;8.050;2023-04-25T08:03:57;11.20;99.90
25188;DHT22;13141;50.414;8.050;2023-04-25T08:06:29;11.20;99.90
25188;DHT22;13141;50.414;8.050;2023-04-25T08:08:57;11.50;99.90
25188;DHT22;13141;50.414;8.050;2023-04-25T08:11:28;11.60;99.90
25188;DHT22;13141;50.414;8.050;2023-04-25T08:13:54;11.90;99.90
25188;DHT22;13141;50.414;8.050;2023-04-25T08:16:23;11.90;99.90
25188;DHT22;13141;50.414;8.050;2023-04-25T08:21:43;12.20;99.90
25188;DHT22;13141;50.414;8.050;2023-04-25T08:24:13;12.20;99.90
25188;DHT22;13141;50.414;8.050;2023-04-25T08:26:39;12.10;99.90
25188;DHT22;13141;50.414;8.050;2023-04-25T08:29:16;12.60;99.80
25188;DHT22;13141;50.414;8.050;2023-04-25T08:31:45;12.90;99.90
25188;DHT22;13141;50.414;8.050;2023-04-25T08:34:11;13.10;99.90
25188;DHT22;13141;50.414;8.050;2023-04-25T08:36:41;13.30;99.90
25188;DHT22;13141;50.414;8.050;2023-04-25T08:39:13;13.40;99.90
25188;DHT22;13141;50.414;8.050;2023-04-25T08:41:52;13.50;99.90
25188;DHT22;13141;50.414;8.050;2023-04-25T08:44:20;13.10;99.10
25188;DHT22;13141;50.414;8.050;2023-04-25T08:46:47;13.60;99.00
25188;DHT22;13141;50.414;8.050;2023-04-25T08:49:20;13.50;98.20
25188;DHT22;13141;50.414;8.050;2023-04-25T08:51:49;13.70;98.70
25188;DHT22;13141;50.414;8.050;2023-04-25T08:54:19;13.90;99.10
25188;DHT22;13141;50.414;8.050;2023-04-25T08:57:06;14.20;99.40
25188;DHT22;13141;50.414;8.050;2023-04-25T08:59:36;14.40;99.50
25188;DHT22;13141;50.414;8.050;2023-04-25T09:02:06;14.70;97.40
25188;DHT22;13141;50.414;8.050;2023-04-25T09:04:38;14.80;98.70
25188;DHT22;13141;50.414;8.050;2023-04-25T09:07:12;15.00;96.60
25188;DHT22;13141;50.414;8.050;2023-04-25T09:09:54;15.10;98.20
25188;DHT22;13141;50.414;8.050;2023-04-25T09:12:37;15.20;97.70
25188;DHT22;13141;50.414;8.050;2023-04-25T09:15:22;15.00;96.80
25188;DHT22;13141;50.414;8.050;2023-04-25T09:17:55;14.70;96.00
25188;DHT22;13141;50.414;8.050;2023-04-25T09:20:27;14.40;96.80
25188;DHT22;13141;50.414;8.050;2023-04-25T09:23:04;14.10;96.30
25188;DHT22;13141;50.414;8.050;2023-04-25T09:25:36;14.20;96.90
25188;DHT22;13141;50.414;8.050;2023-04-25T09:28:11;14.50;96.50
25188;DHT22;13141;50.414;8.050;2023-04-25T09:30:37;14.80;95.90
25188;DHT22;13141;50.414;8.050;2023-04-25T09:33:10;14.80;95.50
25188;DHT22;13141;50.414;8.050;2023-04-25T09:35:43;15.00;97.00
25188;DHT22;13141;50.414;8.050;2023-04-25T09:38:14;14.80;95.70
25188;DHT22;13141;50.414;8.050;2023-04-25T09:40:54;14.90;95.90
25188;DHT22;13141;50.414;8.050;2023-04-25T09:43:26;14.70;96.50
25188;DHT22;13141;50.414;8.050;2023-04-25T09:45:59;14.30;94.60
25188;DHT22;13141;50.414;8.050;2023-04-25T09:48:32;14.10;95.90
25188;DHT22;13141;50.414;8.050;2023-04-25T09:51:07;13.90;95.00
25188;DHT22;13141;50.414;8.050;2023-04-25T09:53:48;14.00;96.00
25188;DHT22;13141;50.414;8.050;2023-04-25T09:56:23;14.10;94.70
25188;DHT22;13141;50.414;8.050;2023-04-25T09:58:51;14.10;95.70
25188;DHT22;13141;50.414;8.050;2023-04-25T10:01:28;13.70;95.20
25188;DHT22;13141;50.414;8.050;2023-04-25T10:04:08;14.00;95.20
25188;DHT22;13141;50.414;8.050;2023-04-25T10:06:37;13.90;94.80
25188;DHT22;13141;50.414;8.050;2023-04-25T10:09:06;13.90;95.40
25188;DHT22;13141;50.414;8.050;2023-04-25T10:11:38;13.80;95.90
25188;DHT22;13141;50.414;8.050;2023-04-25T10:14:05;13.80;95.60
25188;DHT22;13141;50.414;8.050;2023-04-25T10:16:31;13.50;93.20
25188;DHT22;13141;50.414;8.050;2023-04-25T10:19:01;13.30;93.80
25188;DHT22;13141;50.414;8.050;2023-04-25T10:21:32;13.40;94.30
25188;DHT22;13141;50.414;8.050;2023-04-25T10:24:01;13.50;95.30
25188;DHT22;13141;50.414;8.050;2023-04-25T10:26:29;13.80;95.00
25188;DHT22;13141;50.414;8.050;2023-04-25T10:28:59;13.90;94.60
25188;DHT22;13141;50.414;8.050;2023-04-25T10:31:26;14.00;95.10
25188;DHT22;13141;50.414;8.050;2023-04-25T10:33:54;14.00;94.30
25188;DHT22;13141;50.414;8.050;2023-04-25T10:36:23;14.00;94.90
25188;DHT22;13141;50.414;8.050;2023-04-25T10:38:50;14.30;95.10
25188;DHT22;13141;50.414;8.050;2023-04-25T10:41:18;14.30;94.00
25188;DHT22;13141;50.414;8.050;2023-04-25T10:43:45;14.10;94.00
25188;DHT22;13141;50.414;8.050;2023-04-25T10:46:25;14.10;93.70
25188;DHT22;13141;50.414;8.050;2023-04-25T10:48:53;14.20;95.10
25188;DHT22;13141;50.414;8.050;2023-04-25T10:51:30;14.20;95.10
25188;DHT22;13141;50.414;8.050;2023-04-25T10:54:00;14.80;94.60
25188;DHT22;13141;50.414;8.050;2023-04-25T10:56:29;15.30;94.30
25188;DHT22;13141;50.414;8.050;2023-04-25T10:59:22;15.20;94.20
25188;DHT22;13141;50.414;8.050;2023-04-25T11:01:56;15.10;92.60
25188;DHT22;13141;50.414;8.050;2023-04-25T11:04:23;14.60;90.80
25188;DHT22;13141;50.414;8.050;2023-04-25T11:07:07;14.60;93.40
25188;DHT22;13141;50.414;8.050;2023-04-25T11:09:38;14.50;94.20
25188;DHT22;13141;50.414;8.050;2023-04-25T11:12:11;14.40;93.70
25188;DHT22;13141;50.414;8.050;2023-04-25T11:14:37;13.90;92.60
25188;DHT22;13141;50.414;8.050;2023-04-25T11:17:07;13.80;93.80
25188;DHT22;13141;50.414;8.050;2023-04-25T11:19:33;13.70;93.20
25188;DHT22;13141;50.414;8.050;2023-04-25T11:22:03;13.60;93.10
25188;DHT22;13141;50.414;8.050;2023-04-25T11:24:32;13.40;93.30
25188;DHT22;13141;50.414;8.050;2023-04-25T11:26:59;13.40;93.60
25188;DHT22;13141;50.414;8.050;2023-04-25T11:29:30;13.30;94.00
25188;DHT22;13141;50.414;8.050;2023-04-25T11:31:57;13.20;93.20
25188;DHT22;13141;50.414;8.050;2023-04-25T11:34:26;13.10;93.50
25188;DHT22;13141;50.414;8.050;2023-04-25T11:36:57;13.00;93.30
25188;DHT22;13141;50.414;8.050;2023-04-25T11:39:24;13.20;94.10
25188;DHT22;13141;50.414;8.050;2023-04-25T11:41:51;13.50;94.00
25188;DHT22;13141;50.414;8.050;2023-04-25T11:44:23;13.90;93.80
25188;DHT22;13141;50.414;8.050;2023-04-25T11:46:49;13.80;93.30
25188;DHT22;13141;50.414;8.050;2023-04-25T11:49:15;14.20;93.50
25188;DHT22;13141;50.414;8.050;2023-04-25T11:51:51;14.30;93.40
25188;DHT22;13141;50.414;8.050;2023-04-25T11:54:26;14.80;94.80
25188;DHT22;13141;50.414;8.050;2023-04-25T11:56:52;15.10;93.60
25188;DHT22;13141;50.414;8.050;2023-04-25T11:59:32;15.10;92.60
25188;DHT22;13141;50.414;8.050;2023-04-25T12:02:03;15.00;92.50
25188;DHT22;13141;50.414;8.050;2023-04-25T12:04:32;15.00;92.20
25188;DHT22;13141;50.414;8.050;2023-04-25T12:07:13;15.20;91.30
25188;DHT22;13141;50.414;8.050;2023-04-25T12:09:51;15.40;90.50
25188;DHT22;13141;50.414;8.050;2023-04-25T12:12:20;16.40;92.00
25188;DHT22;13141;50.414;8.050;2023-04-25T12:15:07;17.00;93.00
25188;DHT22;13141;50.414;8.050;2023-04-25T12:17:36;17.70;91.40
25188;DHT22;13141;50.414;8.050;2023-04-25T12:20:07;17.40;87.70
25188;DHT22;13141;50.414;8.050;2023-04-25T12:22:37;17.10;88.60
25188;DHT22;13141;50.414;8.050;2023-04-25T12:25:04;16.70;85.60
25188;DHT22;13141;50.414;8.050;2023-04-25T12:27:33;16.50;85.00
25188;DHT22;13141;50.414;8.050;2023-04-25T12:29:58;16.60;88.50
25188;DHT22;13141;50.414;8.050;2023-04-25T12:32:28;16.70;90.00
25188;DHT22;13141;50.414;8.050;2023-04-25T12:35:01;16.70;88.60
25188;DHT22;13141;50.414;8.050;2023-04-25T12:37:31;16.40;86.60
25188;DHT22;13141;50.414;8.050;2023-04-25T12:40:04;16.30;85.20
25188;DHT22;13141;50.414;8.050;2023-04-25T12:42:34;16.10;84.00
25188;DHT22;13141;50.414;8.050;2023-04-25T12:45:00;16.00;84.60
25188;DHT22;13141;50.414;8.050;2023-04-25T12:47:38;15.50;83.20
25188;DHT22;13141;50.414;8.050;2023-04-25T12:50:11;15.70;84.20
25188;DHT22;13141;50.414;8.050;2023-04-25T12:52:41;15.90;87.70
25188;DHT22;13141;50.414;8.050;2023-04-25T12:55:12;16.20;86.60
25188;DHT22;13141;50.414;8.050;2023-04-25T12:58:20;16.90;87.20
25188;DHT22;13141;50.414;8.050;2023-04-25T13:01:22;17.50;83.20
25188;DHT22;13141;50.414;8.050;2023-04-25T13:03:43;18.00;83.70
25188;DHT22;13141;50.414;8.050;2023-04-25T13:06:21;18.30;78.90
25188;DHT22;13141;50.414;8.050;2023-04-25T13:09:06;18.60;81.10
25188;DHT22;13141;50.414;8.050;2023-04-25T13:11:49;18.30;82.10
25188;DHT22;13141;50.414;8.050;2023-04-25T13:14:14;18.30;80.20
25188;DHT22;13141;50.414;8.050;2023-04-25T13:16:40;17.90;83.60
25188;DHT22;13141;50.414;8.050;2023-04-25T13:19:06;17.50;83.50
25188;DHT22;13141;50.414;8.050;2023-04-25T13:21:35;16.80;82.50
25188;DHT22;13141;50.414;8.050;2023-04-25T13:24:01;16.70;84.90
25188;DHT22;13141;50.414;8.050;2023-04-25T13:26:27;16.40;82.00
25188;DHT22;13141;50.414;8.050;2023-04-25T13:28:55;16.10;85.20
25188;DHT22;13141;50.414;8.050;2023-04-25T13:31:21;15.80;86.70
25188;DHT22;13141;50.414;8.050;2023-04-25T13:33:47;15.50;87.90
25188;DHT22;13141;50.414;8.050;2023-04-25T13:36:13;15.10;89.70
25188;DHT22;13141;50.414;8.050;2023-04-25T13:38:41;14.70;90.70
25188;DHT22;13141;50.414;8.050;2023-04-25T13:41:09;14.40;91.30
25188;DHT22;13141;50.414;8.050;2023-04-25T13:43:35;14.30;91.40
25188;DHT22;13141;50.414;8.050;2023-04-25T13:46:02;14.20;91.30
25188;DHT22;13141;50.414;8.050;2023-04-25T13:48:28;14.20;91.60
25188;DHT22;13141;50.414;8.050;2023-04-25T13:50:54;14.20;91.80
25188;DHT22;13141;50.414;8.050;2023-04-25T13:53:19;14.30;92.20
25188;DHT22;13141;50.414;8.050;2023-04-25T13:55:46;14.40;91.40
25188;DHT22;13141;50.414;8.050;2023-04-25T13:58:11;14.20;91.50
25188;DHT22;13141;50.414;8.050;2023-04-25T14:00:38;14.30;90.80
25188;DHT22;13141;50.414;8.050;2023-04-25T14:03:09;14.40;91.20
25188;DHT22;13141;50.414;8.050;2023-04-25T14:05:35;14.30;91.10
25188;DHT22;13141;50.414;8.050;2023-04-25T14:08:01;14.30;90.50
25188;DHT22;13141;50.414;8.050;2023-04-25T14:10:26;14.40;90.40
25188;DHT22;13141;50.414;8.050;2023-04-25T14:12:52;14.60;88.90
25188;DHT22;13141;50.414;8.050;2023-04-25T14:15:18;14.80;88.30
25188;DHT22;13141;50.414;8.050;2023-04-25T14:17:44;15.30;90.50
25188;DHT22;13141;50.414;8.050;2023-04-25T14:20:12;15.70;90.20
25188;DHT22;13141;50.414;8.050;2023-04-25T14:22:37;16.00;90.10
25188;DHT22;13141;50.414;8.050;2023-04-25T14:25:04;16.00;89.80
25188;DHT22;13141;50.414;8.050;2023-04-25T14:27:30;16.00;88.90
25188;DHT22;13141;50.414;8.050;2023-04-25T14:29:55;15.90;83.10
25188;DHT22;13141;50.414;8.050;2023-04-25T14:32:21;15.60;83.60
25188;DHT22;13141;50.414;8.050;2023-04-25T14:34:47;15.90;84.70
25188;DHT22;13141;50.414;8.050;2023-04-25T14:37:15;15.90;84.40
25188;DHT22;13141;50.414;8.050;2023-04-25T14:39:42;15.90;85.60
25188;DHT22;13141;50.414;8.050;2023-04-25T14:42:12;16.00;85.30
25188;DHT22;13141;50.414;8.050;2023-04-25T14:44:38;16.10;86.70
25188;DHT22;13141;50.414;8.050;2023-04-25T14:47:04;16.40;84.10
25188;DHT22;13141;50.414;8.050;2023-04-25T14:49:29;16.30;82.00
25188;DHT22;13141;50.414;8.050;2023-04-25T14:51:55;16.30;82.50
25188;DHT22;13141;50.414;8.050;2023-04-25T14:54:23;16.30;86.50
25188;DHT22;13141;50.414;8.050;2023-04-25T14:56:49;16.70;82.40
25188;DHT22;13141;50.414;8.050;2023-04-25T14:59:15;16.60;80.40
25188;DHT22;13141;50.414;8.050;2023-04-25T15:01:41;16.30;77.50
25188;DHT22;13141;50.414;8.050;2023-04-25T15:04:07;16.10;78.60
25188;DHT22;13141;50.414;8.050;2023-04-25T15:06:33;16.00;80.40
25188;DHT22;13141;50.414;8.050;2023-04-25T15:08:59;16.10;81.20
25188;DHT22;13141;50.414;8.050;2023-04-25T15:11:26;16.00;78.80
25188;DHT22;13141;50.414;8.050;2023-04-25T15:13:52;15.80;77.30
25188;DHT22;13141;50.414;8.050;2023-04-25T15:16:18;15.50;78.00
25188;DHT22;13141;50.414;8.050;2023-04-25T15:18:43;15.30;78.70
25188;DHT22;13141;50.414;8.050;2023-04-25T15:21:09;15.10;76.40
25188;DHT22;13141;50.414;8.050;2023-04-25T15:23:35;14.90;79.20
25188;DHT22;13141;50.414;8.050;2023-04-25T15:26:01;14.80;79.80
25188;DHT22;13141;50.414;8.050;2023-04-25T15:28:29;14.70;81.60
25188;DHT22;13141;50.414;8.050;2023-04-25T15:30:55;14.50;80.60
25188;DHT22;13141;50.414;8.050;2023-04-25T15:33:21;14.40;80.90
25188;DHT22;13141;50.414;8.050;2023-04-25T15:35:46;14.30;80.00
25188;DHT22;13141;50.414;8.050;2023-04-25T15:38:12;14.10;79.80
25188;DHT22;13141;50.414;8.050;2023-04-25T15:40:38;14.00;78.60
25188;DHT22;13141;50.414;8.050;2023-04-25T15:43:04;14.10;79.80
25188;DHT22;13141;50.414;8.050;2023-04-25T15:45:31;14.00;80.30
25188;DHT22;13141;50.414;8.050;2023-04-25T15:47:57;14.30;81.50
25188;DHT22;13141;50.414;8.050;2023-04-25T15:50:23;14.60;82.30